createdAt,value
2023-06-18T00:00:12.366Z,96649.88
2023-06-18T00:02:39.208Z,96625.28
2023-06-18T00:05:06.583Z,96659.91
2023-06-18T00:07:33.162Z,96639.31
2023-06-18T00:09:59.677Z,96656.72
2023-06-18T00:12:26.265Z,96621.31
2023-06-18T00:14:52.800Z,96652.47
2023-06-18T00:17:19.456Z,96653.78
2023-06-18T00:19:46.086Z,96622.34
2023-06-18T00:22:16.231Z,96666.19
2023-06-18T00:24:42.857Z,96655.06
2023-06-18T00:27:10.247Z,96663.03
2023-06-18T00:29:37.149Z,96662.22
2023-06-18T00:32:04.015Z,96648.75
2023-06-18T00:34:34.248Z,96659.84
2023-06-18T00:37:01.591Z,96636.06
2023-06-18T00:39:28.742Z,96629.97
2023-06-18T00:41:56.065Z,96654.28
2023-06-18T00:44:22.621Z,96647.66
2023-06-18T00:46:50.183Z,96660.59
2023-06-18T00:49:19.777Z,96655.56
2023-06-18T00:51:47.567Z,96653.44
2023-06-18T00:54:16.336Z,96657.69
2023-06-18T00:56:51.958Z,96657.38
2023-06-18T00:59:22.454Z,96658.41
2023-06-18T01:01:54.372Z,96637.47
2023-06-18T01:04:23.233Z,96638.00
2023-06-18T01:06:54.606Z,96607.84
2023-06-18T01:09:22.760Z,96630.56
2023-06-18T01:11:53.761Z,96639.03
2023-06-18T01:14:22.892Z,96644.75
2023-06-18T01:16:54.480Z,96627.84
2023-06-18T01:20:02.249Z,96662.50
2023-06-18T01:22:53.091Z,96659.56
2023-06-18T01:25:19.756Z,96650.28
2023-06-18T01:27:48.287Z,96657.91
2023-06-18T01:30:15.574Z,96631.94
2023-06-18T01:32:42.491Z,96616.56
2023-06-18T01:35:17.590Z,96653.16
2023-06-18T01:38:07.390Z,96649.34
2023-06-18T01:40:53.319Z,96653.88
2023-06-18T01:43:19.773Z,96662.59
2023-06-18T01:45:56.860Z,96625.75
2023-06-18T01:48:24.537Z,96658.09
2023-06-18T01:50:52.804Z,96641.44
2023-06-18T01:53:22.910Z,96650.38
2023-06-18T01:55:53.214Z,96609.09
2023-06-18T01:58:22.620Z,96645.06
2023-06-18T02:00:51.126Z,96648.75
2023-06-18T02:03:17.973Z,96648.53
2023-06-18T02:05:44.591Z,96642.31
2023-06-18T02:08:11.168Z,96661.88
2023-06-18T02:10:37.968Z,96625.63
2023-06-18T02:13:06.691Z,96635.59
2023-06-18T02:15:33.248Z,96644.31
2023-06-18T02:17:59.721Z,96660.19
2023-06-18T02:20:26.786Z,96658.53
2023-06-18T02:22:54.430Z,96637.81
2023-06-18T02:25:29.881Z,96632.81
2023-06-18T02:28:01.857Z,96660.59
2023-06-18T02:30:32.088Z,96655.06
2023-06-18T02:33:02.109Z,96646.25
2023-06-18T02:35:30.255Z,96662.13
2023-06-18T02:37:57.269Z,96662.06
2023-06-18T02:40:24.017Z,96635.31
2023-06-18T02:42:51.492Z,96654.13
2023-06-18T02:45:22.855Z,96626.47
2023-06-18T02:47:51.704Z,96627.69
2023-06-18T02:50:19.506Z,96648.13
2023-06-18T02:52:46.293Z,96656.75
2023-06-18T02:55:13.598Z,96631.81
2023-06-18T02:57:41.159Z,96659.50
2023-06-18T03:00:10.632Z,96628.03
2023-06-18T03:02:38.674Z,96652.78
2023-06-18T03:05:08.025Z,96639.50
2023-06-18T03:07:34.603Z,96645.56
2023-06-18T03:10:01.426Z,96642.34
2023-06-18T03:12:30.050Z,96648.97
2023-06-18T03:14:57.816Z,96636.06
2023-06-18T03:17:25.331Z,96631.75
2023-06-18T03:19:53.205Z,96638.22
2023-06-18T03:22:21.426Z,96650.19
2023-06-18T03:24:50.228Z,96632.06
2023-06-18T03:27:17.508Z,96649.56
2023-06-18T03:29:45.146Z,96632.06
2023-06-18T03:32:13.939Z,96660.13
2023-06-18T03:34:43.483Z,96641.31
2023-06-18T03:37:13.094Z,96622.56
2023-06-18T03:39:39.802Z,96664.16
2023-06-18T03:42:06.322Z,96647.06
2023-06-18T03:44:32.731Z,96660.19
2023-06-18T03:46:59.393Z,96623.44
2023-06-18T03:49:25.993Z,96633.34
2023-06-18T03:51:52.696Z,96649.66
2023-06-18T03:54:19.228Z,96665.13
2023-06-18T03:56:45.776Z,96631.16
2023-06-18T03:59:13.019Z,96650.78
2023-06-18T04:01:39.605Z,96664.38
2023-06-18T04:04:07.109Z,96648.75
2023-06-18T04:06:33.739Z,96657.78
2023-06-18T04:09:00.424Z,96665.13
2023-06-18T04:11:28.322Z,96672.88
2023-06-18T04:13:55.360Z,96664.16
2023-06-18T04:16:21.906Z,96637.47
2023-06-18T04:18:48.366Z,96666.03
2023-06-18T04:21:14.928Z,96657.19
2023-06-18T04:23:42.222Z,96669.16
2023-06-18T04:26:08.887Z,96663.00
2023-06-18T04:28:35.719Z,96678.09
2023-06-18T04:31:02.412Z,96670.78
2023-06-18T04:33:29.732Z,96661.94
2023-06-18T04:35:56.298Z,96681.59
2023-06-18T04:38:23.403Z,96646.41
2023-06-18T04:40:50.334Z,96666.03
2023-06-18T04:43:18.945Z,96672.84
2023-06-18T04:45:47.564Z,96654.34
2023-06-18T04:48:15.287Z,96664.81
2023-06-18T04:50:42.865Z,96680.88
2023-06-18T04:53:09.791Z,96673.41
2023-06-18T04:55:37.918Z,96647.53
2023-06-18T04:58:07.965Z,96631.38
2023-06-18T05:00:35.383Z,96649.66
2023-06-18T05:03:03.064Z,96673.22
2023-06-18T05:05:29.711Z,96636.34
2023-06-18T05:07:57.036Z,96657.13
2023-06-18T05:10:24.736Z,96675.66
2023-06-18T05:12:51.679Z,96665.19
2023-06-18T05:15:18.566Z,96663.22
2023-06-18T05:17:45.116Z,96666.38
2023-06-18T05:20:14.606Z,96679.78
2023-06-18T05:22:41.247Z,96642.91
2023-06-18T05:25:09.624Z,96669.22
2023-06-18T05:27:36.179Z,96667.66
2023-06-18T05:30:03.358Z,96684.78
2023-06-18T05:32:31.592Z,96665.25
2023-06-18T05:35:01.117Z,96674.00
2023-06-18T05:37:27.810Z,96675.44
2023-06-18T05:39:54.400Z,96679.16
2023-06-18T05:42:25.024Z,96654.81
2023-06-18T05:44:52.360Z,96687.16
2023-06-18T05:47:19.235Z,96687.94
2023-06-18T05:49:45.756Z,96692.03
2023-06-18T05:52:12.351Z,96692.63
2023-06-18T05:54:40.174Z,96663.91
2023-06-18T05:57:06.774Z,96677.69
2023-06-18T05:59:33.275Z,96683.06
2023-06-18T06:02:07.345Z,96662.06
2023-06-18T06:04:33.906Z,96685.38
2023-06-18T06:07:00.587Z,96675.44
2023-06-18T06:09:27.608Z,96676.09
2023-06-18T06:11:55.142Z,96689.66
2023-06-18T06:14:22.962Z,96659.22
2023-06-18T06:16:51.940Z,96665.56
2023-06-18T06:19:18.592Z,96665.81
2023-06-18T06:21:48.040Z,96656.31
2023-06-18T06:24:14.858Z,96673.16
2023-06-18T06:26:41.493Z,96676.94
2023-06-18T06:29:08.668Z,96687.53
2023-06-18T06:31:35.238Z,96678.75
2023-06-18T06:34:02.322Z,96683.41
2023-06-18T06:36:29.088Z,96687.16
2023-06-18T06:38:55.588Z,96661.13
2023-06-18T06:41:22.191Z,96664.19
2023-06-18T06:43:49.007Z,96662.47
2023-06-18T06:46:41.657Z,96670.88
2023-06-18T06:49:34.087Z,96673.56
2023-06-18T06:52:21.555Z,96633.53
2023-06-18T06:54:52.181Z,96664.22
2023-06-18T06:57:18.755Z,96646.28
2023-06-18T06:59:45.950Z,96627.84
2023-06-18T07:02:13.158Z,96665.19
2023-06-18T07:04:39.727Z,96641.91
2023-06-18T07:07:06.229Z,96665.28
2023-06-18T07:09:32.781Z,96646.44
2023-06-18T07:11:59.240Z,96618.75
2023-06-18T07:14:26.067Z,96658.53
2023-06-18T07:16:52.862Z,96646.09
2023-06-18T07:19:19.434Z,96634.44
2023-06-18T07:21:45.962Z,96632.63
2023-06-18T07:24:12.550Z,96643.81
2023-06-18T07:26:41.342Z,96653.16
2023-06-18T07:29:08.266Z,96638.50
2023-06-18T07:31:36.186Z,96623.81
2023-06-18T07:34:02.681Z,96643.50
2023-06-18T07:36:29.948Z,96653.09
2023-06-18T07:38:57.658Z,96637.44
2023-06-18T07:41:24.218Z,96657.69
2023-06-18T07:43:50.767Z,96656.97
2023-06-18T07:46:17.513Z,96648.47
2023-06-18T07:48:44.115Z,96641.41
2023-06-18T07:51:10.766Z,96647.34
2023-06-18T07:53:37.293Z,96650.44
2023-06-18T07:56:03.957Z,96646.16
2023-06-18T07:58:30.688Z,96645.69
2023-06-18T08:00:57.149Z,96654.47
2023-06-18T08:03:24.045Z,96642.94
2023-06-18T08:05:50.744Z,96637.56
2023-06-18T08:08:17.261Z,96658.63
2023-06-18T08:10:43.908Z,96655.50
2023-06-18T08:13:10.764Z,96622.03
2023-06-18T08:15:37.260Z,96657.16
2023-06-18T08:18:03.880Z,96652.56
2023-06-18T08:20:30.599Z,96635.06
2023-06-18T08:22:57.279Z,96628.75
2023-06-18T08:25:23.828Z,96648.00
2023-06-18T08:27:50.375Z,96640.06
2023-06-18T08:30:16.863Z,96635.97
2023-06-18T08:32:43.382Z,96644.88
2023-06-18T08:35:10.013Z,96626.75
2023-06-18T08:37:36.769Z,96618.84
2023-06-18T08:40:04.623Z,96640.38
2023-06-18T08:42:31.517Z,96615.63
2023-06-18T08:44:58.046Z,96623.09
2023-06-18T08:47:28.681Z,96638.16
2023-06-18T08:49:58.544Z,96619.75
2023-06-18T08:52:29.089Z,96629.63
2023-06-18T08:55:01.119Z,96618.25
2023-06-18T08:57:34.266Z,96633.34
2023-06-18T09:00:03.311Z,96637.91
2023-06-18T09:02:30.803Z,96610.94
2023-06-18T09:04:57.772Z,96638.69
2023-06-18T09:07:26.131Z,96637.00
2023-06-18T09:09:52.688Z,96615.91
2023-06-18T09:12:19.532Z,96638.75
2023-06-18T09:14:47.695Z,96638.50
2023-06-18T09:17:14.521Z,96626.53
2023-06-18T09:19:41.438Z,96641.19
2023-06-18T09:22:14.843Z,96643.28
2023-06-18T09:24:41.860Z,96623.03
2023-06-18T09:27:08.785Z,96621.25
2023-06-18T09:29:37.311Z,96619.81
2023-06-18T09:32:09.234Z,96636.00
2023-06-18T09:34:36.765Z,96641.50
2023-06-18T09:37:04.741Z,96639.31
2023-06-18T09:39:32.643Z,96640.59
2023-06-18T09:42:06.485Z,96625.84
2023-06-18T09:44:34.164Z,96611.06
2023-06-18T09:47:01.189Z,96593.72
2023-06-18T09:49:31.125Z,96630.69
2023-06-18T09:51:57.791Z,96616.84
2023-06-18T09:54:39.145Z,96617.34
2023-06-18T09:57:07.428Z,96603.34
2023-06-18T09:59:34.030Z,96612.47
2023-06-18T10:02:00.647Z,96611.81
2023-06-18T10:04:27.405Z,96633.31
2023-06-18T10:07:05.214Z,96620.41
2023-06-18T10:09:36.976Z,96632.25
2023-06-18T10:12:05.758Z,96627.88
2023-06-18T10:14:33.603Z,96619.44
2023-06-18T10:17:13.020Z,96627.44
2023-06-18T10:19:50.635Z,96623.69
2023-06-18T10:22:19.560Z,96626.88
2023-06-18T10:24:57.127Z,96626.03
2023-06-18T10:27:25.483Z,96616.19
2023-06-18T10:29:52.257Z,96613.63
2023-06-18T10:32:19.558Z,96608.59
2023-06-18T10:34:46.954Z,96614.25
2023-06-18T10:37:14.901Z,96595.13
2023-06-18T10:39:41.856Z,96609.94
2023-06-18T10:42:13.636Z,96618.63
2023-06-18T10:44:58.662Z,96602.94
2023-06-18T10:47:30.087Z,96612.84
2023-06-18T10:50:09.013Z,96608.75
2023-06-18T10:52:40.829Z,96609.72
2023-06-18T10:55:07.949Z,96579.50
2023-06-18T10:57:42.488Z,96572.28
2023-06-18T11:00:26.851Z,96581.91
2023-06-18T11:03:03.600Z,96608.06
2023-06-18T11:05:33.538Z,96595.97
2023-06-18T11:08:04.777Z,96601.94
2023-06-18T11:10:40.937Z,96596.34
2023-06-18T11:13:09.387Z,96592.59
2023-06-18T11:15:37.322Z,96571.44
2023-06-18T11:18:04.354Z,96592.66
2023-06-18T11:20:32.964Z,96552.72
2023-06-18T11:23:02.364Z,96588.22
2023-06-18T11:25:30.672Z,96589.00
2023-06-18T11:28:01.679Z,96581.41
2023-06-18T11:30:28.383Z,96571.88
2023-06-18T11:32:55.008Z,96564.16
2023-06-18T11:35:21.883Z,96571.06
2023-06-18T11:37:48.667Z,96526.78
2023-06-18T11:40:15.449Z,96559.50
2023-06-18T11:42:50.593Z,96565.78
2023-06-18T11:45:17.801Z,96555.50
2023-06-18T11:47:49.524Z,96555.84
2023-06-18T11:50:17.687Z,96543.06
2023-06-18T11:52:46.203Z,96552.56
2023-06-18T11:55:12.936Z,96536.28
2023-06-18T11:57:40.414Z,96538.88
2023-06-18T12:00:11.655Z,96537.47
2023-06-18T12:02:41.728Z,96553.63
2023-06-18T12:05:09.494Z,96525.19
2023-06-18T12:07:43.003Z,96529.75
2023-06-18T12:10:11.413Z,96545.28
2023-06-18T12:12:55.241Z,96553.03
2023-06-18T12:15:36.881Z,96548.47
2023-06-18T12:18:14.246Z,96546.13
2023-06-18T12:20:41.304Z,96536.16
2023-06-18T12:23:08.241Z,96515.91
2023-06-18T12:25:35.359Z,96523.88
2023-06-18T12:28:06.112Z,96526.28
2023-06-18T12:30:36.568Z,96510.88
2023-06-18T12:33:07.863Z,96500.41
2023-06-18T12:35:36.127Z,96530.56
2023-06-18T12:38:09.599Z,96528.34
2023-06-18T12:40:56.635Z,96529.81
2023-06-18T12:43:23.859Z,96517.78
2023-06-18T12:45:51.842Z,96494.91
2023-06-18T12:48:22.089Z,96519.06
2023-06-18T12:50:50.218Z,96522.75
2023-06-18T12:53:21.753Z,96516.44
2023-06-18T12:55:51.989Z,96504.84
2023-06-18T12:58:29.273Z,96510.38
2023-06-18T13:00:58.494Z,96505.53
2023-06-18T13:03:26.655Z,96515.56
2023-06-18T13:05:53.595Z,96509.78
2023-06-18T13:08:21.893Z,96507.03
2023-06-18T13:10:52.863Z,96515.44
2023-06-18T13:13:20.641Z,96459.28
2023-06-18T13:15:49.066Z,96502.25
2023-06-18T13:18:19.591Z,96500.97
2023-06-18T13:20:47.466Z,96490.16
2023-06-18T13:23:14.663Z,96478.38
2023-06-18T13:25:41.216Z,96490.34
2023-06-18T13:28:08.207Z,96466.84
2023-06-18T13:30:35.287Z,96488.44
2023-06-18T13:33:02.001Z,96460.13
2023-06-18T13:35:30.932Z,96487.69
2023-06-18T13:37:58.164Z,96462.56
2023-06-18T13:40:24.782Z,96485.31
2023-06-18T13:42:52.517Z,96456.69
2023-06-18T13:45:21.641Z,96454.56
2023-06-18T13:47:48.773Z,96451.50
2023-06-18T13:50:15.367Z,96450.88
2023-06-18T13:52:41.908Z,96448.41
2023-06-18T13:55:08.853Z,96422.81
2023-06-18T13:57:36.147Z,96466.22
2023-06-18T14:00:03.866Z,96433.81
2023-06-18T14:02:31.973Z,96453.19
2023-06-18T14:04:58.860Z,96441.97
2023-06-18T14:07:26.506Z,96434.69
2023-06-18T14:09:53.224Z,96449.03
2023-06-18T14:12:19.858Z,96450.00
2023-06-18T14:14:46.771Z,96455.34
2023-06-18T14:17:13.386Z,96438.91
2023-06-18T14:19:41.024Z,96451.91
2023-06-18T14:22:07.968Z,96452.53
2023-06-18T14:24:35.775Z,96448.75
2023-06-18T14:27:04.004Z,96411.44
2023-06-18T14:29:33.266Z,96441.59
2023-06-18T14:32:01.114Z,96415.53
2023-06-18T14:34:27.953Z,96439.88
2023-06-18T14:36:56.361Z,96433.25
2023-06-18T14:39:23.977Z,96437.81
2023-06-18T14:41:51.845Z,96452.75
2023-06-18T14:44:18.956Z,96443.94
2023-06-18T14:46:45.574Z,96455.34
2023-06-18T14:49:12.188Z,96440.34
2023-06-18T14:51:38.735Z,96446.38
2023-06-18T14:54:12.759Z,96455.41
2023-06-18T14:56:41.848Z,96438.03
2023-06-18T14:59:08.967Z,96461.47
2023-06-18T15:01:37.617Z,96412.81
2023-06-18T15:04:04.842Z,96425.25
2023-06-18T15:06:33.139Z,96420.31
2023-06-18T15:09:00.285Z,96456.44
2023-06-18T15:11:28.742Z,96385.09
2023-06-18T15:13:55.634Z,96443.53
2023-06-18T15:16:22.831Z,96434.25
2023-06-18T15:18:49.401Z,96443.50
2023-06-18T15:21:15.938Z,96417.91
2023-06-18T15:23:42.685Z,96406.31
2023-06-18T15:26:13.466Z,96440.44
2023-06-18T15:28:39.968Z,96422.50
2023-06-18T15:31:09.501Z,96404.38
2023-06-18T15:33:36.047Z,96403.38
2023-06-18T15:36:02.559Z,96419.28
2023-06-18T15:38:29.072Z,96421.69
2023-06-18T15:40:56.682Z,96426.91
2023-06-18T15:43:23.273Z,96413.53
2023-06-18T15:45:49.833Z,96403.50
2023-06-18T15:48:19.290Z,96420.19
2023-06-18T15:50:47.996Z,96382.88
2023-06-18T15:53:16.554Z,96438.50
2023-06-18T15:55:43.230Z,96415.53
2023-06-18T15:58:09.881Z,96425.91
2023-06-18T16:00:36.400Z,96418.72
2023-06-18T16:03:03.253Z,96412.34
2023-06-18T16:05:29.905Z,96393.75
2023-06-18T16:07:56.511Z,96389.38
2023-06-18T16:10:23.008Z,96398.81
2023-06-18T16:12:49.545Z,96289.19
2023-06-18T16:15:16.420Z,96382.63
2023-06-18T16:17:43.068Z,96394.88
2023-06-18T16:20:10.409Z,96409.88
2023-06-18T16:22:37.008Z,96335.59
2023-06-18T16:25:03.614Z,96390.38
2023-06-18T16:27:30.138Z,96400.50
2023-06-18T16:29:56.693Z,96365.44
2023-06-18T16:32:23.213Z,96379.75
2023-06-18T16:34:49.810Z,96313.88
2023-06-18T16:37:16.435Z,96345.88
2023-06-18T16:39:42.974Z,96366.81
2023-06-18T16:42:09.623Z,96370.97
2023-06-18T16:44:36.997Z,96363.59
2023-06-18T16:47:03.764Z,96376.28
2023-06-18T16:49:30.382Z,96365.72
2023-06-18T16:51:56.883Z,96301.53
2023-06-18T16:54:23.405Z,96341.84
2023-06-18T16:56:50.101Z,96362.69
2023-06-18T16:59:18.323Z,96338.03
2023-06-18T17:01:45.165Z,96378.91
2023-06-18T17:04:12.235Z,96379.03
2023-06-18T17:06:38.864Z,96377.28
2023-06-18T17:09:05.464Z,96399.72
2023-06-18T17:11:32.443Z,96377.41
2023-06-18T17:13:59.056Z,96370.41
2023-06-18T17:16:25.993Z,96396.16
2023-06-18T17:18:52.610Z,96400.78
2023-06-18T17:21:20.513Z,96395.97
2023-06-18T17:23:47.073Z,96379.50
2023-06-18T17:26:13.725Z,96386.66
2023-06-18T17:28:40.604Z,96396.66
2023-06-18T17:31:07.470Z,96389.06
2023-06-18T17:33:34.061Z,96388.84
2023-06-18T17:36:03.302Z,96383.03
2023-06-18T17:38:32.269Z,96376.28
2023-06-18T17:40:59.357Z,96387.44
2023-06-18T17:43:25.956Z,96368.41
2023-06-18T17:46:12.570Z,96399.78
2023-06-18T17:48:39.839Z,96398.16
2023-06-18T17:51:06.603Z,96353.22
2023-06-18T17:53:33.409Z,96404.50
2023-06-18T17:56:00.107Z,96410.28
2023-06-18T17:58:26.712Z,96386.72
2023-06-18T18:00:54.490Z,96400.28
2023-06-18T18:03:22.060Z,96409.84
2023-06-18T18:05:49.186Z,96381.34
2023-06-18T18:08:16.949Z,96414.72
2023-06-18T18:10:45.585Z,96412.41
2023-06-18T18:13:12.428Z,96379.94
2023-06-18T18:15:39.866Z,96419.00
2023-06-18T18:18:06.693Z,96413.56
2023-06-18T18:20:33.309Z,96420.06
2023-06-18T18:22:59.869Z,96408.56
2023-06-18T18:25:26.464Z,96404.28
2023-06-18T18:27:52.982Z,96413.28
2023-06-18T18:30:20.682Z,96398.06
2023-06-18T18:32:47.322Z,96383.97
2023-06-18T18:35:14.008Z,96405.44
2023-06-18T18:37:40.532Z,96407.19
2023-06-18T18:40:07.546Z,96397.59
2023-06-18T18:42:34.647Z,96391.56
2023-06-18T18:45:01.186Z,96413.91
2023-06-18T18:47:27.771Z,96405.94
2023-06-18T18:49:54.679Z,96410.16
2023-06-18T18:52:21.342Z,96422.78
2023-06-18T18:54:47.832Z,96403.31
2023-06-18T18:57:14.990Z,96416.88
2023-06-18T18:59:41.530Z,96424.69
2023-06-18T19:02:14.141Z,96412.09
2023-06-18T19:04:40.672Z,96404.03
2023-06-18T19:07:08.700Z,96433.16
2023-06-18T19:09:35.879Z,96420.03
2023-06-18T19:12:02.830Z,96399.88
2023-06-18T19:14:30.121Z,96422.00
2023-06-18T19:16:57.974Z,96422.47
2023-06-18T19:19:26.496Z,96409.97
2023-06-18T19:21:53.029Z,96431.25
2023-06-18T19:24:19.484Z,96442.28
2023-06-18T19:26:45.985Z,96437.38
2023-06-18T19:29:12.629Z,96448.78
2023-06-18T19:31:39.235Z,96436.25
2023-06-18T19:34:05.862Z,96430.34
2023-06-18T19:36:32.389Z,96445.13
2023-06-18T19:38:58.846Z,96467.63
2023-06-18T19:41:25.368Z,96444.84
2023-06-18T19:43:51.900Z,96479.91
2023-06-18T19:46:18.600Z,96471.94
2023-06-18T19:48:45.287Z,96476.81
2023-06-18T19:51:12.987Z,96470.56
2023-06-18T19:53:41.333Z,96457.50
2023-06-18T19:56:07.891Z,96490.53
2023-06-18T19:58:34.495Z,96471.03
2023-06-18T20:01:00.917Z,96492.09
2023-06-18T20:03:27.533Z,96473.03
2023-06-18T20:05:55.077Z,96458.91
2023-06-18T20:08:22.825Z,96459.53
2023-06-18T20:10:49.265Z,96503.22
2023-06-18T20:13:15.774Z,96494.38
2023-06-18T20:15:45.680Z,96501.31
2023-06-18T20:18:18.138Z,96509.75
2023-06-18T20:20:44.971Z,96481.47
2023-06-18T20:23:11.909Z,96494.34
2023-06-18T20:25:38.605Z,96501.75
2023-06-18T20:28:05.173Z,96467.63
2023-06-18T20:30:31.621Z,96514.41
2023-06-18T20:32:59.484Z,96507.78
2023-06-18T20:35:26.082Z,96516.75
2023-06-18T20:37:52.496Z,96518.44
2023-06-18T20:40:19.463Z,96506.91
2023-06-18T20:42:46.010Z,96521.75
2023-06-18T20:45:12.541Z,96517.97
2023-06-18T20:47:39.105Z,96525.97
2023-06-18T20:50:06.359Z,96488.44
2023-06-18T20:52:32.928Z,96521.13
2023-06-18T20:54:59.356Z,96522.72
2023-06-18T20:57:25.890Z,96527.81
2023-06-18T20:59:53.014Z,96523.41
2023-06-18T21:02:23.424Z,96488.34
2023-06-18T21:04:50.193Z,96484.56
2023-06-18T21:07:16.610Z,96530.75
2023-06-18T21:09:43.163Z,96502.03
2023-06-18T21:12:09.710Z,96534.34
2023-06-18T21:14:36.283Z,96533.88
2023-06-18T21:17:03.503Z,96531.81
2023-06-18T21:19:30.163Z,96518.81
2023-06-18T21:21:56.596Z,96539.16
2023-06-18T21:24:23.242Z,96527.81
2023-06-18T21:26:49.982Z,96506.38
2023-06-18T21:29:16.607Z,96535.44
2023-06-18T21:31:44.374Z,96524.75
2023-06-18T21:34:10.882Z,96503.28
2023-06-18T21:36:37.299Z,96544.34
2023-06-18T21:39:04.124Z,96545.03
2023-06-18T21:41:30.928Z,96507.81
2023-06-18T21:43:57.539Z,96546.72
2023-06-18T21:46:24.005Z,96538.81
2023-06-18T21:48:50.566Z,96515.09
2023-06-18T21:51:17.025Z,96534.28
2023-06-18T21:53:43.576Z,96530.84
2023-06-18T21:56:10.120Z,96540.63
2023-06-18T21:58:36.703Z,96526.81
2023-06-18T22:17:29.290Z,96533.88
2023-06-18T22:19:55.941Z,96531.03
2023-06-18T22:22:22.603Z,96513.00
2023-06-18T22:24:49.042Z,96522.28
2023-06-18T22:27:15.812Z,96504.13
2023-06-18T22:29:42.541Z,96516.84
2023-06-18T22:32:09.609Z,96519.31
2023-06-18T22:34:41.623Z,96523.88
2023-06-18T22:37:09.478Z,96522.31
2023-06-18T22:39:36.288Z,96523.66
2023-06-18T22:42:03.422Z,96534.53
2023-06-18T22:44:30.159Z,96535.81
2023-06-18T22:46:56.789Z,96533.44
2023-06-18T22:49:23.273Z,96540.56
2023-06-18T22:51:59.480Z,96541.34
2023-06-18T22:54:27.652Z,96542.09
2023-06-18T22:56:54.554Z,96532.34
2023-06-18T22:59:21.686Z,96532.47
2023-06-18T23:01:48.447Z,96530.97
2023-06-18T23:04:15.230Z,96508.28
2023-06-18T23:06:41.944Z,96507.91
2023-06-18T23:09:08.536Z,96525.03
2023-06-18T23:11:35.045Z,96524.06
2023-06-18T23:14:01.974Z,96523.47
2023-06-18T23:16:28.603Z,96511.50
2023-06-18T23:18:56.880Z,96514.19
2023-06-18T23:21:31.766Z,96488.16
2023-06-18T23:24:05.732Z,96508.69
2023-06-18T23:26:32.337Z,96512.03
2023-06-18T23:28:58.792Z,96510.63
2023-06-18T23:31:25.614Z,96508.00
2023-06-18T23:33:52.322Z,96486.63
2023-06-18T23:36:19.922Z,96504.56
2023-06-18T23:38:46.650Z,96497.56
2023-06-18T23:41:13.243Z,96502.19
2023-06-18T23:43:39.692Z,96496.69
2023-06-18T23:46:06.263Z,96494.09
2023-06-18T23:48:33.176Z,96488.78
2023-06-18T23:51:00.850Z,96495.00
2023-06-18T23:53:27.303Z,96495.28
2023-06-18T23:55:53.859Z,96491.34
2023-06-18T23:58:20.457Z,96488.38
